sensor_id;sensor_type;location;lat;lon;timestamp;temperature;humidity
48376;DHT22;34178;50.904;11.560;2022-12-07T00:01:37;2.60;99.90
48376;DHT22;34178;50.904;11.560;2022-12-07T00:04:07;2.60;99.90
48376;DHT22;34178;50.904;11.560;2022-12-07T00:06:35;2.60;99.90
48376;DHT22;34178;50.904;11.560;2022-12-07T00:09:01;2.60;99.90
48376;DHT22;34178;50.904;11.560;2022-12-07T00:11:26;2.60;99.90
48376;DHT22;34178;50.904;11.560;2022-12-07T00:13:54;2.60;99.90
48376;DHT22;34178;50.904;11.560;2022-12-07T00:16:23;2.60;99.90
48376;DHT22;34178;50.904;11.560;2022-12-07T00:18:49;2.60;99.90
48376;DHT22;34178;50.904;11.560;2022-12-07T00:21:21;2.60;99.90
48376;DHT22;34178;50.904;11.560;2022-12-07T00:23:48;2.60;99.90
48376;DHT22;34178;50.904;11.560;2022-12-07T00:28:52;2.40;99.90
48376;DHT22;34178;50.904;11.560;2022-12-07T00:31:20;2.40;99.90
48376;DHT22;34178;50.904;11.560;2022-12-07T00:33:46;2.30;99.90
48376;DHT22;34178;50.904;11.560;2022-12-07T00:36:14;2.30;99.90
48376;DHT22;34178;50.904;11.560;2022-12-07T00:38:41;2.00;99.90
48376;DHT22;34178;50.904;11.560;2022-12-07T00:41:16;1.90;99.90
48376;DHT22;34178;50.904;11.560;2022-12-07T00:43:43;1.80;99.90
48376;DHT22;34178;50.904;11.560;2022-12-07T00:46:10;1.70;99.90
48376;DHT22;34178;50.904;11.560;2022-12-07T00:48:36;1.70;99.90
48376;DHT22;34178;50.904;11.560;2022-12-07T00:51:03;1.50;99.90
48376;DHT22;34178;50.904;11.560;2022-12-07T00:53:29;1.50;99.90
48376;DHT22;34178;50.904;11.560;2022-12-07T00:55:54;1.70;99.90
48376;DHT22;34178;50.904;11.560;2022-12-07T00:58:22;1.80;99.90
48376;DHT22;34178;50.904;11.560;2022-12-07T01:00:48;1.80;99.90
48376;DHT22;34178;50.904;11.560;2022-12-07T01:03:14;1.90;99.90
48376;DHT22;34178;50.904;11.560;2022-12-07T01:05:52;2.00;99.90
48376;DHT22;34178;50.904;11.560;2022-12-07T01:08:18;1.90;99.90
48376;DHT22;34178;50.904;11.560;2022-12-07T01:10:44;1.80;99.90
48376;DHT22;34178;50.904;11.560;2022-12-07T01:13:10;1.70;99.90
48376;DHT22;34178;50.904;11.560;2022-12-07T01:15:42;1.70;99.90
48376;DHT22;34178;50.904;11.560;2022-12-07T01:18:09;1.70;99.90
48376;DHT22;34178;50.904;11.560;2022-12-07T01:20:35;1.60;99.90
48376;DHT22;34178;50.904;11.560;2022-12-07T01:23:01;1.60;99.90
48376;DHT22;34178;50.904;11.560;2022-12-07T01:25:27;1.60;99.90
48376;DHT22;34178;50.904;11.560;2022-12-07T01:27:53;1.40;99.90
48376;DHT22;34178;50.904;11.560;2022-12-07T01:30:18;1.40;99.90
48376;DHT22;34178;50.904;11.560;2022-12-07T01:32:44;1.40;99.90
48376;DHT22;34178;50.904;11.560;2022-12-07T01:35:10;1.40;99.90
48376;DHT22;34178;50.904;11.560;2022-12-07T01:37:36;1.40;99.90
48376;DHT22;34178;50.904;11.560;2022-12-07T01:40:04;1.50;99.90
48376;DHT22;34178;50.904;11.560;2022-12-07T01:42:30;1.50;99.90
48376;DHT22;34178;50.904;11.560;2022-12-07T01:47:47;1.50;99.90
48376;DHT22;34178;50.904;11.560;2022-12-07T01:50:14;1.50;99.90
48376;DHT22;34178;50.904;11.560;2022-12-07T01:52:41;1.40;99.90
48376;DHT22;34178;50.904;11.560;2022-12-07T01:55:13;1.40;99.90
48376;DHT22;34178;50.904;11.560;2022-12-07T01:57:43;1.40;99.90
48376;DHT22;34178;50.904;11.560;2022-12-07T02:00:10;1.40;99.90
48376;DHT22;34178;50.904;11.560;2022-12-07T02:02:43;1.40;99.90
48376;DHT22;34178;50.904;11.560;2022-12-07T02:05:09;1.40;99.90
48376;DHT22;34178;50.904;11.560;2022-12-07T02:07:38;1.40;99.90
48376;DHT22;34178;50.904;11.560;2022-12-07T02:10:18;1.40;99.90
48376;DHT22;34178;50.904;11.560;2022-12-07T02:12:45;1.30;99.90
48376;DHT22;34178;50.904;11.560;2022-12-07T02:15:12;1.40;99.90
48376;DHT22;34178;50.904;11.560;2022-12-07T02:18:02;1.30;99.90
48376;DHT22;34178;50.904;11.560;2022-12-07T02:20:41;1.30;99.90
48376;DHT22;34178;50.904;11.560;2022-12-07T02:26:17;1.20;99.90
48376;DHT22;34178;50.904;11.560;2022-12-07T02:31:46;1.20;99.90
48376;DHT22;34178;50.904;11.560;2022-12-07T02:34:41;1.20;99.90
48376;DHT22;34178;50.904;11.560;2022-12-07T02:40:07;1.30;99.90
48376;DHT22;34178;50.904;11.560;2022-12-07T02:42:40;1.30;99.90
48376;DHT22;34178;50.904;11.560;2022-12-07T02:45:09;1.30;99.90
48376;DHT22;34178;50.904;11.560;2022-12-07T02:47:36;1.40;99.90
48376;DHT22;34178;50.904;11.560;2022-12-07T02:50:04;1.40;99.90
48376;DHT22;34178;50.904;11.560;2022-12-07T02:52:30;1.40;99.90
48376;DHT22;34178;50.904;11.560;2022-12-07T02:54:56;1.50;99.90
48376;DHT22;34178;50.904;11.560;2022-12-07T03:15:59;1.70;99.90
48376;DHT22;34178;50.904;11.560;2022-12-07T03:18:30;1.80;99.90
48376;DHT22;34178;50.904;11.560;2022-12-07T03:21:01;1.90;99.90
48376;DHT22;34178;50.904;11.560;2022-12-07T03:23:28;2.00;99.90
48376;DHT22;34178;50.904;11.560;2022-12-07T03:25:59;2.10;99.90
48376;DHT22;34178;50.904;11.560;2022-12-07T03:28:29;2.10;99.90
48376;DHT22;34178;50.904;11.560;2022-12-07T03:31:09;2.10;99.90
48376;DHT22;34178;50.904;11.560;2022-12-07T03:33:44;2.20;99.90
48376;DHT22;34178;50.904;11.560;2022-12-07T03:36:40;2.20;99.90
48376;DHT22;34178;50.904;11.560;2022-12-07T03:41:37;2.40;99.90
48376;DHT22;34178;50.904;11.560;2022-12-07T03:44:05;2.30;99.90
48376;DHT22;34178;50.904;11.560;2022-12-07T03:55:02;2.20;99.90
48376;DHT22;34178;50.904;11.560;2022-12-07T03:57:32;2.40;99.90
48376;DHT22;34178;50.904;11.560;2022-12-07T03:59:59;2.50;99.90
48376;DHT22;34178;50.904;11.560;2022-12-07T04:02:27;2.50;99.90
48376;DHT22;34178;50.904;11.560;2022-12-07T04:04:54;2.60;99.90
48376;DHT22;34178;50.904;11.560;2022-12-07T04:07:20;2.50;99.90
48376;DHT22;34178;50.904;11.560;2022-12-07T04:09:46;2.50;99.90
48376;DHT22;34178;50.904;11.560;2022-12-07T04:12:12;2.50;99.90
48376;DHT22;34178;50.904;11.560;2022-12-07T04:14:37;2.60;99.90
48376;DHT22;34178;50.904;11.560;2022-12-07T04:17:03;2.60;99.90
48376;DHT22;34178;50.904;11.560;2022-12-07T04:19:32;2.60;99.90
48376;DHT22;34178;50.904;11.560;2022-12-07T04:21:59;2.70;99.90
48376;DHT22;34178;50.904;11.560;2022-12-07T04:24:26;2.70;99.90
48376;DHT22;34178;50.904;11.560;2022-12-07T04:26:52;2.70;99.90
48376;DHT22;34178;50.904;11.560;2022-12-07T04:29:18;2.70;99.90
48376;DHT22;34178;50.904;11.560;2022-12-07T04:31:44;2.70;99.90
48376;DHT22;34178;50.904;11.560;2022-12-07T04:34:11;2.60;99.90
48376;DHT22;34178;50.904;11.560;2022-12-07T04:36:38;2.60;99.90
48376;DHT22;34178;50.904;11.560;2022-12-07T04:39:04;2.60;99.90
48376;DHT22;34178;50.904;11.560;2022-12-07T04:41:31;2.60;99.90
48376;DHT22;34178;50.904;11.560;2022-12-07T04:44:00;2.70;99.90
48376;DHT22;34178;50.904;11.560;2022-12-07T04:46:27;2.70;99.90
48376;DHT22;34178;50.904;11.560;2022-12-07T04:48:54;2.70;99.90
48376;DHT22;34178;50.904;11.560;2022-12-07T04:51:23;2.70;99.90
48376;DHT22;34178;50.904;11.560;2022-12-07T04:53:48;2.70;99.90
48376;DHT22;34178;50.904;11.560;2022-12-07T04:56:15;2.80;99.90
48376;DHT22;34178;50.904;11.560;2022-12-07T04:58:42;2.80;99.90
48376;DHT22;34178;50.904;11.560;2022-12-07T05:01:08;2.80;99.90
48376;DHT22;34178;50.904;11.560;2022-12-07T05:03:35;2.80;99.90
48376;DHT22;34178;50.904;11.560;2022-12-07T05:06:00;2.90;99.90
48376;DHT22;34178;50.904;11.560;2022-12-07T05:08:26;2.90;99.90
48376;DHT22;34178;50.904;11.560;2022-12-07T05:10:52;2.90;99.90
48376;DHT22;34178;50.904;11.560;2022-12-07T05:13:17;2.90;99.90
48376;DHT22;34178;50.904;11.560;2022-12-07T05:15:43;2.90;99.90
48376;DHT22;34178;50.904;11.560;2022-12-07T05:18:10;2.90;99.90
48376;DHT22;34178;50.904;11.560;2022-12-07T05:20:41;2.90;99.90
48376;DHT22;34178;50.904;11.560;2022-12-07T05:23:07;2.90;99.90
48376;DHT22;34178;50.904;11.560;2022-12-07T05:25:33;3.00;99.90
48376;DHT22;34178;50.904;11.560;2022-12-07T05:27:59;3.00;99.90
48376;DHT22;34178;50.904;11.560;2022-12-07T05:30:26;3.00;99.90
48376;DHT22;34178;50.904;11.560;2022-12-07T05:32:51;3.10;99.90
48376;DHT22;34178;50.904;11.560;2022-12-07T05:35:18;3.10;99.90
48376;DHT22;34178;50.904;11.560;2022-12-07T05:37:44;3.10;99.90
48376;DHT22;34178;50.904;11.560;2022-12-07T05:40:10;3.10;99.90
48376;DHT22;34178;50.904;11.560;2022-12-07T05:42:36;3.20;99.90
48376;DHT22;34178;50.904;11.560;2022-12-07T05:45:02;3.20;99.90
48376;DHT22;34178;50.904;11.560;2022-12-07T05:47:28;3.30;99.90
48376;DHT22;34178;50.904;11.560;2022-12-07T05:49:54;3.30;99.90
48376;DHT22;34178;50.904;11.560;2022-12-07T05:52:20;3.30;99.90
48376;DHT22;34178;50.904;11.560;2022-12-07T05:54:46;3.30;99.90
48376;DHT22;34178;50.904;11.560;2022-12-07T05:57:11;3.30;99.90
48376;DHT22;34178;50.904;11.560;2022-12-07T05:59:37;3.40;99.90
48376;DHT22;34178;50.904;11.560;2022-12-07T06:02:06;3.30;99.90
48376;DHT22;34178;50.904;11.560;2022-12-07T06:04:38;3.30;99.90
48376;DHT22;34178;50.904;11.560;2022-12-07T06:07:05;3.30;99.90
48376;DHT22;34178;50.904;11.560;2022-12-07T06:09:31;3.40;99.90
48376;DHT22;34178;50.904;11.560;2022-12-07T06:11:58;3.40;99.90
48376;DHT22;34178;50.904;11.560;2022-12-07T06:14:43;3.30;99.90
48376;DHT22;34178;50.904;11.560;2022-12-07T06:17:09;3.30;99.90
48376;DHT22;34178;50.904;11.560;2022-12-07T06:19:35;3.40;99.90
48376;DHT22;34178;50.904;11.560;2022-12-07T06:22:02;3.40;99.90
48376;DHT22;34178;50.904;11.560;2022-12-07T06:24:28;3.50;99.90
48376;DHT22;34178;50.904;11.560;2022-12-07T06:26:53;3.50;99.90
48376;DHT22;34178;50.904;11.560;2022-12-07T06:29:19;3.50;99.90
48376;DHT22;34178;50.904;11.560;2022-12-07T06:31:45;3.40;99.90
48376;DHT22;34178;50.904;11.560;2022-12-07T06:34:13;3.50;99.90
48376;DHT22;34178;50.904;11.560;2022-12-07T06:36:40;3.50;99.90
48376;DHT22;34178;50.904;11.560;2022-12-07T06:39:06;3.50;99.90
48376;DHT22;34178;50.904;11.560;2022-12-07T06:41:35;3.50;99.90
48376;DHT22;34178;50.904;11.560;2022-12-07T06:44:02;3.40;99.90
48376;DHT22;34178;50.904;11.560;2022-12-07T06:46:28;3.40;99.90
48376;DHT22;34178;50.904;11.560;2022-12-07T06:48:54;3.50;99.90
48376;DHT22;34178;50.904;11.560;2022-12-07T06:51:19;3.50;99.90
48376;DHT22;34178;50.904;11.560;2022-12-07T06:53:45;3.50;99.90
48376;DHT22;34178;50.904;11.560;2022-12-07T06:56:11;3.60;99.90
48376;DHT22;34178;50.904;11.560;2022-12-07T06:58:36;3.60;99.90
48376;DHT22;34178;50.904;11.560;2022-12-07T07:01:02;3.50;99.90
48376;DHT22;34178;50.904;11.560;2022-12-07T07:03:28;3.50;99.90
48376;DHT22;34178;50.904;11.560;2022-12-07T07:05:54;3.50;99.90
48376;DHT22;34178;50.904;11.560;2022-12-07T07:08:19;3.60;99.90
48376;DHT22;34178;50.904;11.560;2022-12-07T07:10:45;3.60;99.90
48376;DHT22;34178;50.904;11.560;2022-12-07T07:13:11;3.60;99.90
48376;DHT22;34178;50.904;11.560;2022-12-07T07:15:38;3.70;99.90
48376;DHT22;34178;50.904;11.560;2022-12-07T07:18:04;3.70;99.90
48376;DHT22;34178;50.904;11.560;2022-12-07T07:20:30;3.70;99.90
48376;DHT22;34178;50.904;11.560;2022-12-07T07:22:56;3.70;99.90
48376;DHT22;34178;50.904;11.560;2022-12-07T07:25:21;3.70;99.90
48376;DHT22;34178;50.904;11.560;2022-12-07T07:27:47;3.70;99.90
48376;DHT22;34178;50.904;11.560;2022-12-07T07:30:13;3.70;99.90
48376;DHT22;34178;50.904;11.560;2022-12-07T07:32:39;3.70;99.90
48376;DHT22;34178;50.904;11.560;2022-12-07T07:35:05;3.70;99.90
48376;DHT22;34178;50.904;11.560;2022-12-07T07:37:31;3.60;99.90
48376;DHT22;34178;50.904;11.560;2022-12-07T07:39:57;3.60;99.90
48376;DHT22;34178;50.904;11.560;2022-12-07T07:42:22;3.60;99.90
48376;DHT22;34178;50.904;11.560;2022-12-07T07:44:48;3.60;99.90
48376;DHT22;34178;50.904;11.560;2022-12-07T07:47:14;3.50;99.90
48376;DHT22;34178;50.904;11.560;2022-12-07T07:49:39;3.50;99.90
48376;DHT22;34178;50.904;11.560;2022-12-07T07:52:06;3.50;99.90
48376;DHT22;34178;50.904;11.560;2022-12-07T07:54:31;3.50;99.90
48376;DHT22;34178;50.904;11.560;2022-12-07T07:56:57;3.60;99.90
48376;DHT22;34178;50.904;11.560;2022-12-07T07:59:23;3.60;99.90
48376;DHT22;34178;50.904;11.560;2022-12-07T08:01:50;3.60;99.90
48376;DHT22;34178;50.904;11.560;2022-12-07T08:04:15;3.60;99.90
48376;DHT22;34178;50.904;11.560;2022-12-07T08:06:41;3.70;99.90
48376;DHT22;34178;50.904;11.560;2022-12-07T08:09:08;3.60;99.90
48376;DHT22;34178;50.904;11.560;2022-12-07T08:11:34;3.70;99.90
48376;DHT22;34178;50.904;11.560;2022-12-07T08:14:00;3.80;99.90
48376;DHT22;34178;50.904;11.560;2022-12-07T08:16:26;3.90;99.90
48376;DHT22;34178;50.904;11.560;2022-12-07T08:18:52;3.90;99.90
48376;DHT22;34178;50.904;11.560;2022-12-07T08:21:17;4.00;99.90
48376;DHT22;34178;50.904;11.560;2022-12-07T08:23:43;4.10;99.90
48376;DHT22;34178;50.904;11.560;2022-12-07T08:26:11;4.10;99.90
48376;DHT22;34178;50.904;11.560;2022-12-07T08:28:37;4.10;99.90
48376;DHT22;34178;50.904;11.560;2022-12-07T08:31:11;4.10;99.90
48376;DHT22;34178;50.904;11.560;2022-12-07T08:33:37;4.10;99.90
48376;DHT22;34178;50.904;11.560;2022-12-07T08:36:12;4.10;99.90
48376;DHT22;34178;50.904;11.560;2022-12-07T08:38:40;4.10;99.90
48376;DHT22;34178;50.904;11.560;2022-12-07T08:41:06;4.10;99.90
48376;DHT22;34178;50.904;11.560;2022-12-07T08:43:32;4.10;99.90
48376;DHT22;34178;50.904;11.560;2022-12-07T08:46:21;4.10;99.90
48376;DHT22;34178;50.904;11.560;2022-12-07T08:48:53;4.10;99.90
48376;DHT22;34178;50.904;11.560;2022-12-07T08:51:21;4.20;99.90
48376;DHT22;34178;50.904;11.560;2022-12-07T08:53:49;4.20;99.90
48376;DHT22;34178;50.904;11.560;2022-12-07T08:56:15;4.20;99.90
48376;DHT22;34178;50.904;11.560;2022-12-07T08:58:41;4.20;99.90
48376;DHT22;34178;50.904;11.560;2022-12-07T09:01:07;4.20;99.90
48376;DHT22;34178;50.904;11.560;2022-12-07T09:03:33;4.20;99.90
48376;DHT22;34178;50.904;11.560;2022-12-07T09:05:59;4.20;99.90
48376;DHT22;34178;50.904;11.560;2022-12-07T09:08:30;4.20;99.90
48376;DHT22;34178;50.904;11.560;2022-12-07T09:10:57;4.30;99.90
48376;DHT22;34178;50.904;11.560;2022-12-07T09:13:22;4.30;99.90
48376;DHT22;34178;50.904;11.560;2022-12-07T09:15:48;4.40;99.90
48376;DHT22;34178;50.904;11.560;2022-12-07T09:18:14;4.40;99.90
48376;DHT22;34178;50.904;11.560;2022-12-07T09:20:39;4.40;99.90
48376;DHT22;34178;50.904;11.560;2022-12-07T09:23:06;4.40;99.90
48376;DHT22;34178;50.904;11.560;2022-12-07T09:25:33;4.50;99.90
48376;DHT22;34178;50.904;11.560;2022-12-07T09:27:59;4.50;99.90
48376;DHT22;34178;50.904;11.560;2022-12-07T09:30:25;4.50;99.90
48376;DHT22;34178;50.904;11.560;2022-12-07T09:32:56;4.50;99.90
48376;DHT22;34178;50.904;11.560;2022-12-07T09:35:23;4.50;99.90
48376;DHT22;34178;50.904;11.560;2022-12-07T09:37:49;4.50;99.90
48376;DHT22;34178;50.904;11.560;2022-12-07T09:40:17;4.50;99.90
48376;DHT22;34178;50.904;11.560;2022-12-07T09:42:47;4.50;99.90
48376;DHT22;34178;50.904;11.560;2022-12-07T09:45:25;4.60;99.90
48376;DHT22;34178;50.904;11.560;2022-12-07T09:47:52;4.60;99.90
48376;DHT22;34178;50.904;11.560;2022-12-07T09:50:24;4.70;99.90
48376;DHT22;34178;50.904;11.560;2022-12-07T09:52:52;4.80;99.90
48376;DHT22;34178;50.904;11.560;2022-12-07T09:55:29;4.90;99.90
48376;DHT22;34178;50.904;11.560;2022-12-07T09:57:57;4.90;99.90
48376;DHT22;34178;50.904;11.560;2022-12-07T10:00:24;4.90;99.90
48376;DHT22;34178;50.904;11.560;2022-12-07T10:02:58;4.90;99.90
48376;DHT22;34178;50.904;11.560;2022-12-07T10:05:33;5.00;99.90
48376;DHT22;34178;50.904;11.560;2022-12-07T10:08:00;4.90;99.90
48376;DHT22;34178;50.904;11.560;2022-12-07T10:10:33;4.90;99.90
48376;DHT22;34178;50.904;11.560;2022-12-07T10:13:05;5.00;99.90
48376;DHT22;34178;50.904;11.560;2022-12-07T10:18:39;5.30;99.90
48376;DHT22;34178;50.904;11.560;2022-12-07T10:29:30;5.20;99.90
48376;DHT22;34178;50.904;11.560;2022-12-07T10:32:26;5.20;99.90
48376;DHT22;34178;50.904;11.560;2022-12-07T10:37:43;5.20;99.90
48376;DHT22;34178;50.904;11.560;2022-12-07T10:40:35;5.30;99.90
48376;DHT22;34178;50.904;11.560;2022-12-07T10:43:18;5.40;99.90
48376;DHT22;34178;50.904;11.560;2022-12-07T10:48:28;5.30;99.90
48376;DHT22;34178;50.904;11.560;2022-12-07T10:57:08;5.40;99.90
48376;DHT22;34178;50.904;11.560;2022-12-07T11:02:47;5.40;99.90
48376;DHT22;34178;50.904;11.560;2022-12-07T11:05:24;5.40;99.90
48376;DHT22;34178;50.904;11.560;2022-12-07T11:15:55;5.40;99.90
48376;DHT22;34178;50.904;11.560;2022-12-07T11:26:42;5.90;99.90
48376;DHT22;34178;50.904;11.560;2022-12-07T11:35:05;6.40;99.90
48376;DHT22;34178;50.904;11.560;2022-12-07T11:37:35;6.60;99.90
48376;DHT22;34178;50.904;11.560;2022-12-07T11:40:05;6.50;99.90
48376;DHT22;34178;50.904;11.560;2022-12-07T11:42:42;6.40;99.90
48376;DHT22;34178;50.904;11.560;2022-12-07T11:47:51;6.40;99.90
48376;DHT22;34178;50.904;11.560;2022-12-07T12:01:01;6.00;99.90
48376;DHT22;34178;50.904;11.560;2022-12-07T12:03:34;6.00;99.90
48376;DHT22;34178;50.904;11.560;2022-12-07T12:06:03;6.10;99.90
48376;DHT22;34178;50.904;11.560;2022-12-07T12:08:46;6.10;99.90
48376;DHT22;34178;50.904;11.560;2022-12-07T12:22:12;6.00;99.90
48376;DHT22;34178;50.904;11.560;2022-12-07T12:24:40;6.00;99.90
48376;DHT22;34178;50.904;11.560;2022-12-07T12:27:09;6.10;99.90
48376;DHT22;34178;50.904;11.560;2022-12-07T12:29:41;6.30;99.90
48376;DHT22;34178;50.904;11.560;2022-12-07T12:32:19;6.30;99.90
48376;DHT22;34178;50.904;11.560;2022-12-07T12:37:46;6.20;99.90
48376;DHT22;34178;50.904;11.560;2022-12-07T12:42:49;5.70;99.90
48376;DHT22;34178;50.904;11.560;2022-12-07T12:45:27;5.80;99.90
48376;DHT22;34178;50.904;11.560;2022-12-07T12:48:03;5.80;99.90
48376;DHT22;34178;50.904;11.560;2022-12-07T12:50:37;6.00;99.90
48376;DHT22;34178;50.904;11.560;2022-12-07T12:53:21;6.10;99.90
48376;DHT22;34178;50.904;11.560;2022-12-07T12:59:41;6.10;99.90
48376;DHT22;34178;50.904;11.560;2022-12-07T13:10:36;5.00;99.90
48376;DHT22;34178;50.904;11.560;2022-12-07T13:15:42;4.90;99.90
48376;DHT22;34178;50.904;11.560;2022-12-07T13:29:06;4.90;99.90
48376;DHT22;34178;50.904;11.560;2022-12-07T13:31:46;4.70;99.90
48376;DHT22;34178;50.904;11.560;2022-12-07T13:34:34;4.80;99.90
48376;DHT22;34178;50.904;11.560;2022-12-07T13:39:54;4.90;99.90
48376;DHT22;34178;50.904;11.560;2022-12-07T13:42:34;4.90;99.90
48376;DHT22;34178;50.904;11.560;2022-12-07T13:45:01;4.80;99.90
48376;DHT22;34178;50.904;11.560;2022-12-07T13:47:46;4.80;99.90
48376;DHT22;34178;50.904;11.560;2022-12-07T13:50:28;4.80;99.90
48376;DHT22;34178;50.904;11.560;2022-12-07T13:52:59;4.70;99.90
48376;DHT22;34178;50.904;11.560;2022-12-07T13:55:26;4.60;99.90
48376;DHT22;34178;50.904;11.560;2022-12-07T13:57:52;4.60;99.90
48376;DHT22;34178;50.904;11.560;2022-12-07T14:00:21;4.50;99.90
48376;DHT22;34178;50.904;11.560;2022-12-07T14:05:43;4.50;99.90
48376;DHT22;34178;50.904;11.560;2022-12-07T14:10:55;4.50;99.90
48376;DHT22;34178;50.904;11.560;2022-12-07T14:16:30;4.50;99.90
48376;DHT22;34178;50.904;11.560;2022-12-07T14:18:58;4.50;99.90
48376;DHT22;34178;50.904;11.560;2022-12-07T14:21:27;4.60;99.90
48376;DHT22;34178;50.904;11.560;2022-12-07T14:26:40;4.70;99.90
48376;DHT22;34178;50.904;11.560;2022-12-07T14:31:52;4.60;99.90
48376;DHT22;34178;50.904;11.560;2022-12-07T14:34:22;4.40;99.90
48376;DHT22;34178;50.904;11.560;2022-12-07T14:36:48;4.40;99.90
48376;DHT22;34178;50.904;11.560;2022-12-07T14:39:14;4.30;99.90
48376;DHT22;34178;50.904;11.560;2022-12-07T14:41:39;4.20;99.90
48376;DHT22;34178;50.904;11.560;2022-12-07T14:44:19;4.10;99.90
48376;DHT22;34178;50.904;11.560;2022-12-07T14:46:45;4.00;99.90
48376;DHT22;34178;50.904;11.560;2022-12-07T14:49:10;3.90;99.90
48376;DHT22;34178;50.904;11.560;2022-12-07T14:51:38;3.90;99.90
48376;DHT22;34178;50.904;11.560;2022-12-07T14:54:06;3.90;99.90
48376;DHT22;34178;50.904;11.560;2022-12-07T14:56:35;3.80;99.90
48376;DHT22;34178;50.904;11.560;2022-12-07T14:59:00;3.70;99.90
48376;DHT22;34178;50.904;11.560;2022-12-07T15:01:26;3.60;99.90
48376;DHT22;34178;50.904;11.560;2022-12-07T15:03:51;3.70;99.90
48376;DHT22;34178;50.904;11.560;2022-12-07T15:06:18;3.60;99.90
48376;DHT22;34178;50.904;11.560;2022-12-07T15:08:44;3.40;99.90
48376;DHT22;34178;50.904;11.560;2022-12-07T15:11:13;3.30;99.90
48376;DHT22;34178;50.904;11.560;2022-12-07T15:13:39;3.20;99.90
48376;DHT22;34178;50.904;11.560;2022-12-07T15:16:23;3.20;99.90
48376;DHT22;34178;50.904;11.560;2022-12-07T15:18:49;3.20;99.90
48376;DHT22;34178;50.904;11.560;2022-12-07T15:21:15;3.10;99.90
48376;DHT22;34178;50.904;11.560;2022-12-07T15:23:41;3.10;99.90
48376;DHT22;34178;50.904;11.560;2022-12-07T15:26:09;3.00;99.90
48376;DHT22;34178;50.904;11.560;2022-12-07T15:28:35;2.90;99.90
48376;DHT22;34178;50.904;11.560;2022-12-07T15:31:01;2.90;99.90
48376;DHT22;34178;50.904;11.560;2022-12-07T15:33:26;2.90;99.90
48376;DHT22;34178;50.904;11.560;2022-12-07T15:35:52;2.90;99.90
48376;DHT22;34178;50.904;11.560;2022-12-07T15:38:18;2.80;99.90
48376;DHT22;34178;50.904;11.560;2022-12-07T15:40:46;2.80;99.90
48376;DHT22;34178;50.904;11.560;2022-12-07T15:43:12;2.80;99.90
48376;DHT22;34178;50.904;11.560;2022-12-07T15:45:56;2.70;99.90
48376;DHT22;34178;50.904;11.560;2022-12-07T15:48:22;2.70;99.90
48376;DHT22;34178;50.904;11.560;2022-12-07T15:50:48;2.70;99.90
48376;DHT22;34178;50.904;11.560;2022-12-07T15:53:13;2.70;99.90
48376;DHT22;34178;50.904;11.560;2022-12-07T15:55:40;2.70;99.90
48376;DHT22;34178;50.904;11.560;2022-12-07T15:58:06;2.50;99.90
48376;DHT22;34178;50.904;11.560;2022-12-07T16:00:32;2.50;99.90
48376;DHT22;34178;50.904;11.560;2022-12-07T16:02:58;2.50;99.90
48376;DHT22;34178;50.904;11.560;2022-12-07T16:05:23;2.40;99.90
48376;DHT22;34178;50.904;11.560;2022-12-07T16:07:49;2.50;99.90
48376;DHT22;34178;50.904;11.560;2022-12-07T16:10:15;2.40;99.90
48376;DHT22;34178;50.904;11.560;2022-12-07T16:12:40;2.40;99.90
48376;DHT22;34178;50.904;11.560;2022-12-07T16:15:06;2.40;99.90
48376;DHT22;34178;50.904;11.560;2022-12-07T16:17:32;2.30;99.90
48376;DHT22;34178;50.904;11.560;2022-12-07T16:19:58;2.30;99.90
48376;DHT22;34178;50.904;11.560;2022-12-07T16:22:24;2.30;99.90
48376;DHT22;34178;50.904;11.560;2022-12-07T16:24:50;2.30;99.90
48376;DHT22;34178;50.904;11.560;2022-12-07T16:27:15;2.30;99.90
48376;DHT22;34178;50.904;11.560;2022-12-07T16:29:41;2.40;99.90
48376;DHT22;34178;50.904;11.560;2022-12-07T16:32:07;2.40;99.90
48376;DHT22;34178;50.904;11.560;2022-12-07T16:34:32;2.40;99.90
48376;DHT22;34178;50.904;11.560;2022-12-07T16:36:58;2.40;99.90
48376;DHT22;34178;50.904;11.560;2022-12-07T16:39:24;2.40;99.90
48376;DHT22;34178;50.904;11.560;2022-12-07T16:41:50;2.40;99.90
48376;DHT22;34178;50.904;11.560;2022-12-07T16:44:15;2.30;99.90
48376;DHT22;34178;50.904;11.560;2022-12-07T16:46:41;2.40;99.90
48376;DHT22;34178;50.904;11.560;2022-12-07T16:49:14;2.40;99.90
48376;DHT22;34178;50.904;11.560;2022-12-07T16:51:41;2.40;99.90
48376;DHT22;34178;50.904;11.560;2022-12-07T16:54:10;2.50;99.90
48376;DHT22;34178;50.904;11.560;2022-12-07T16:56:36;2.60;99.90
48376;DHT22;34178;50.904;11.560;2022-12-07T16:59:01;2.50;99.90
48376;DHT22;34178;50.904;11.560;2022-12-07T17:01:27;2.50;99.90
48376;DHT22;34178;50.904;11.560;2022-12-07T17:03:53;2.50;99.90
48376;DHT22;34178;50.904;11.560;2022-12-07T17:06:25;2.40;99.90
48376;DHT22;34178;50.904;11.560;2022-12-07T17:08:51;2.40;99.90
48376;DHT22;34178;50.904;11.560;2022-12-07T17:11:22;2.40;99.90
48376;DHT22;34178;50.904;11.560;2022-12-07T17:13:48;2.30;99.90
48376;DHT22;34178;50.904;11.560;2022-12-07T17:16:33;2.30;99.90
48376;DHT22;34178;50.904;11.560;2022-12-07T17:19:03;2.30;99.90
48376;DHT22;34178;50.904;11.560;2022-12-07T17:21:28;2.20;99.90
48376;DHT22;34178;50.904;11.560;2022-12-07T17:23:54;2.20;99.90
48376;DHT22;34178;50.904;11.560;2022-12-07T17:26:22;2.10;99.90
48376;DHT22;34178;50.904;11.560;2022-12-07T17:28:48;2.20;99.90
48376;DHT22;34178;50.904;11.560;2022-12-07T17:31:16;2.20;99.90
48376;DHT22;34178;50.904;11.560;2022-12-07T17:33:43;2.20;99.90
48376;DHT22;34178;50.904;11.560;2022-12-07T17:36:17;2.10;99.90
48376;DHT22;34178;50.904;11.560;2022-12-07T17:38:44;2.10;99.90
48376;DHT22;34178;50.904;11.560;2022-12-07T17:43:36;2.20;99.90
48376;DHT22;34178;50.904;11.560;2022-12-07T17:46:10;2.10;99.90
48376;DHT22;34178;50.904;11.560;2022-12-07T17:48:36;2.10;99.90
48376;DHT22;34178;50.904;11.560;2022-12-07T17:51:02;2.10;99.90
48376;DHT22;34178;50.904;11.560;2022-12-07T17:53:50;2.20;99.90
48376;DHT22;34178;50.904;11.560;2022-12-07T17:56:16;2.10;99.90
48376;DHT22;34178;50.904;11.560;2022-12-07T17:58:42;2.20;99.90
48376;DHT22;34178;50.904;11.560;2022-12-07T18:01:08;2.10;99.90
48376;DHT22;34178;50.904;11.560;2022-12-07T18:03:34;2.10;99.90
48376;DHT22;34178;50.904;11.560;2022-12-07T18:06:00;2.10;99.90
48376;DHT22;34178;50.904;11.560;2022-12-07T18:08:26;2.20;99.90
48376;DHT22;34178;50.904;11.560;2022-12-07T18:10:59;2.10;99.90
48376;DHT22;34178;50.904;11.560;2022-12-07T18:13:25;2.20;99.90
48376;DHT22;34178;50.904;11.560;2022-12-07T18:16:08;2.20;99.90
48376;DHT22;34178;50.904;11.560;2022-12-07T18:18:34;2.20;99.90
48376;DHT22;34178;50.904;11.560;2022-12-07T18:21:08;2.20;99.90
48376;DHT22;34178;50.904;11.560;2022-12-07T18:23:34;2.20;99.90
48376;DHT22;34178;50.904;11.560;2022-12-07T18:26:00;2.20;99.90